Time;durP1;ratioP1;P1;durP2;ratioP2;P2;SDS_P1;SDS_P2;PMS_P1;PMS_P2;Temp;Humidity;BMP_temperature;BMP_pressure;BME280_temperature;BME280_humidity;BME280_pressure;Samples;Min_cycle;Max_cycle;Signal;HPM_P1;HPM_P2
2024/02/03 00:02:14;;;;;;;15.77;7.90;;;9.40;99.90;;;;;;8455503;28;20048;-72
2024/02/03 00:06:16;;;;;;;15.88;7.70;;;9.40;99.90;;;;;;8448660;28;20050;-72
2024/02/03 00:10:18;;;;;;;13.60;7.90;;;9.40;99.90;;;;;;8452916;28;20071;-72
2024/02/03 00:14:20;;;;;;;12.98;6.57;;;9.40;99.90;;;;;;8441519;28;20096;-73
2024/02/03 00:18:22;;;;;;;16.15;7.68;;;9.40;99.90;;;;;;8453749;28;20472;-72
2024/02/03 00:22:24;;;;;;;15.20;6.85;;;9.40;99.90;;;;;;8447074;28;20073;-72
2024/02/03 00:26:26;;;;;;;12.18;6.22;;;9.40;99.90;;;;;;8431857;28;20468;-72
2024/02/03 00:30:27;;;;;;;14.05;6.90;;;9.30;99.90;;;;;;8451997;28;20079;-73
2024/02/03 00:34:29;;;;;;;10.43;6.13;;;9.30;99.90;;;;;;8439249;28;20067;-73
2024/02/03 00:38:31;;;;;;;12.00;5.85;;;9.40;99.90;;;;;;8434264;28;20440;-73
2024/02/03 00:42:33;;;;;;;12.70;6.35;;;9.40;99.90;;;;;;8447244;28;20043;-72
2024/02/03 00:46:35;;;;;;;10.65;5.90;;;9.40;99.90;;;;;;8451101;28;20043;-73
2024/02/03 00:50:37;;;;;;;11.05;5.47;;;9.40;99.90;;;;;;8452746;28;20399;-73
2024/02/03 00:54:39;;;;;;;13.95;5.13;;;9.40;99.90;;;;;;8455323;28;20407;-72
2024/02/03 00:58:41;;;;;;;10.80;4.65;;;9.50;99.90;;;;;;8450340;28;20044;-73
2024/02/03 01:02:43;;;;;;;10.93;5.30;;;9.50;99.90;;;;;;8450132;28;20117;-73
2024/02/03 01:06:45;;;;;;;9.73;4.90;;;9.50;99.90;;;;;;8450685;28;20044;-72
2024/02/03 01:10:47;;;;;;;11.32;5.05;;;9.50;99.90;;;;;;8456111;27;20050;-73
2024/02/03 01:14:49;;;;;;;11.40;4.90;;;9.50;99.90;;;;;;8460838;28;20035;-73
2024/02/03 01:18:51;;;;;;;9.77;4.40;;;9.60;99.90;;;;;;8458881;28;20054;-73
2024/02/03 01:22:53;;;;;;;8.43;4.15;;;9.60;99.90;;;;;;8444467;28;20107;-73
2024/02/03 01:26:55;;;;;;;13.77;4.90;;;9.60;99.90;;;;;;8447198;28;20157;-73
2024/02/03 01:30:57;;;;;;;8.57;3.97;;;9.60;99.90;;;;;;8452517;28;20043;-72
2024/02/03 01:34:59;;;;;;;8.02;3.78;;;9.70;99.90;;;;;;8451093;28;20055;-72
2024/02/03 01:39:01;;;;;;;11.60;4.18;;;9.70;99.90;;;;;;8453582;28;20044;-72
2024/02/03 01:43:18;;;;;;;7.85;4.40;;;9.70;99.90;;;;;;8449834;27;20056;-72
2024/02/03 01:47:21;;;;;;;10.15;3.60;;;9.80;99.90;;;;;;8457561;28;20040;-73
2024/02/03 01:51:25;;;;;;;11.48;4.40;;;9.80;99.90;;;;;;8454558;27;20071;-73
2024/02/03 01:55:28;;;;;;;6.88;3.88;;;9.80;99.90;;;;;;8435793;28;20047;-73
2024/02/03 01:59:31;;;;;;;13.10;4.43;;;9.80;99.90;;;;;;8458512;28;20099;-73
2024/02/03 02:03:33;;;;;;;8.02;3.72;;;9.80;99.90;;;;;;8451166;28;20058;-73
2024/02/03 02:07:45;;;;;;;11.90;4.88;;;9.80;99.90;;;;;;8444869;28;20054;-73
2024/02/03 02:11:47;;;;;;;9.65;4.38;;;9.90;99.90;;;;;;8455714;28;20070;-73
2024/02/03 02:15:49;;;;;;;13.98;4.28;;;9.90;99.90;;;;;;8437767;28;20069;-73
2024/02/03 02:19:51;;;;;;;12.75;4.22;;;9.80;99.90;;;;;;8445830;28;20048;-72
2024/02/03 02:23:54;;;;;;;10.50;4.45;;;9.90;99.90;;;;;;8450083;27;20075;-73
2024/02/03 02:27:56;;;;;;;8.25;3.80;;;9.80;99.90;;;;;;8444865;28;20062;-73
2024/02/03 02:31:58;;;;;;;12.10;4.13;;;9.80;99.90;;;;;;8457276;28;20582;-73
2024/02/03 02:35:59;;;;;;;8.43;3.80;;;9.80;99.90;;;;;;8451457;28;20411;-73
2024/02/03 02:40:01;;;;;;;11.32;3.63;;;9.80;99.90;;;;;;8455433;27;20100;-72
2024/02/03 02:44:03;;;;;;;9.75;3.55;;;9.70;99.90;;;;;;8453952;27;20120;-73
2024/02/03 02:48:06;;;;;;;7.38;4.15;;;9.70;99.90;;;;;;8439833;28;20043;-72
2024/02/03 02:52:08;;;;;;;7.93;3.70;;;9.60;99.90;;;;;;8457270;27;20043;-72
2024/02/03 02:56:11;;;;;;;12.80;3.63;;;9.60;99.90;;;;;;8455379;28;20067;-72
2024/02/03 03:00:14;;;;;;;6.70;3.20;;;9.60;99.90;;;;;;8459268;28;20056;-73
2024/02/03 03:04:16;;;;;;;9.75;4.18;;;9.60;99.90;;;;;;8437488;28;20449;-73
2024/02/03 03:08:17;;;;;;;10.60;3.90;;;9.60;99.90;;;;;;8453331;28;20078;-73
2024/02/03 03:12:19;;;;;;;7.85;3.03;;;9.60;99.90;;;;;;8450870;28;20063;-72
2024/02/03 03:16:22;;;;;;;7.05;3.50;;;9.60;99.90;;;;;;8438768;28;20048;-73
2024/02/03 03:20:23;;;;;;;7.07;3.45;;;9.70;99.90;;;;;;8453448;28;20081;-73
2024/02/03 03:24:25;;;;;;;6.57;2.70;;;9.70;99.90;;;;;;8450626;28;20044;-72
2024/02/03 03:28:27;;;;;;;7.90;2.88;;;9.70;99.90;;;;;;8448916;28;20486;-72
2024/02/03 03:32:29;;;;;;;6.45;2.97;;;9.80;99.90;;;;;;8440380;28;20041;-72
2024/02/03 03:36:31;;;;;;;10.25;3.33;;;9.80;99.90;;;;;;8450726;28;20536;-72
2024/02/03 03:40:33;;;;;;;7.28;3.20;;;9.80;99.90;;;;;;8456033;28;20053;-73
2024/02/03 03:44:35;;;;;;;9.93;3.40;;;9.80;99.90;;;;;;8443438;28;20055;-72
2024/02/03 03:48:37;;;;;;;7.55;2.90;;;9.80;99.90;;;;;;8454531;28;20044;-73
2024/02/03 03:52:39;;;;;;;8.20;2.97;;;9.80;99.90;;;;;;8446645;28;20036;-72
2024/02/03 03:56:41;;;;;;;8.23;3.40;;;9.80;99.90;;;;;;8449447;28;20043;-72
2024/02/03 04:00:43;;;;;;;9.60;3.20;;;9.80;99.90;;;;;;8450677;28;20088;-73
2024/02/03 04:04:45;;;;;;;9.07;3.05;;;9.80;99.90;;;;;;8447827;28;20495;-73
2024/02/03 04:08:47;;;;;;;6.15;2.60;;;9.90;99.90;;;;;;8447464;27;20040;-73
2024/02/03 04:18:11;;;;;;;5.57;2.60;;;9.90;99.90;;;;;;8453521;28;20042;-72
2024/02/03 04:22:13;;;;;;;9.07;2.80;;;9.90;99.90;;;;;;8452233;28;20035;-72
2024/02/03 04:26:15;;;;;;;10.30;2.58;;;9.90;99.90;;;;;;8430742;28;20051;-72
2024/02/03 04:30:29;;;;;;;6.88;2.80;;;9.90;99.90;;;;;;8451481;28;20105;-72
2024/02/03 04:34:31;;;;;;;6.20;2.22;;;9.90;99.90;;;;;;8436992;28;20040;-72
2024/02/03 04:38:33;;;;;;;7.55;2.78;;;9.90;99.90;;;;;;8440747;28;20456;-72
2024/02/03 04:42:35;;;;;;;7.75;2.67;;;9.90;99.90;;;;;;8445898;28;20065;-72
2024/02/03 04:46:37;;;;;;;7.07;2.22;;;9.90;99.90;;;;;;8448752;28;20407;-72
2024/02/03 04:50:38;;;;;;;6.88;2.42;;;9.90;99.90;;;;;;8448232;28;20307;-72
2024/02/03 04:54:40;;;;;;;11.10;3.17;;;9.90;99.90;;;;;;8450135;28;20093;-72
2024/02/03 04:58:42;;;;;;;5.10;2.08;;;9.90;99.90;;;;;;8450609;28;20410;-72
2024/02/03 05:02:44;;;;;;;6.53;2.30;;;9.90;99.90;;;;;;8444639;28;20067;-72
2024/02/03 05:06:46;;;;;;;8.57;2.63;;;9.90;99.90;;;;;;8450699;28;20054;-72
2024/02/03 05:10:48;;;;;;;5.60;2.08;;;9.90;99.90;;;;;;8436673;28;20051;-72
2024/02/03 05:14:49;;;;;;;9.23;2.60;;;9.90;99.90;;;;;;8445941;28;20048;-72
2024/02/03 05:18:52;;;;;;;12.48;2.67;;;9.90;99.90;;;;;;8447630;28;20046;-72
2024/02/03 05:22:54;;;;;;;5.75;1.90;;;10.00;99.90;;;;;;8447596;28;20103;-72
2024/02/03 05:26:56;;;;;;;7.90;2.42;;;10.00;99.90;;;;;;8445766;28;20497;-72
2024/02/03 05:30:58;;;;;;;7.15;2.10;;;10.00;99.90;;;;;;8447740;28;20047;-71
2024/02/03 05:35:03;;;;;;;6.72;2.03;;;10.00;99.90;;;;;;8453250;28;20040;-72
2024/02/03 05:39:05;;;;;;;8.55;2.13;;;10.00;99.90;;;;;;8443262;28;20109;-72
2024/02/03 05:43:08;;;;;;;5.68;2.30;;;10.00;99.90;;;;;;8452413;28;20060;-73
2024/02/03 05:47:10;;;;;;;7.25;2.00;;;10.00;99.90;;;;;;8460613;28;20514;-72
2024/02/03 05:56:37;;;;;;;6.15;2.10;;;10.00;99.90;;;;;;8452438;28;20105;-72
2024/02/03 06:00:39;;;;;;;6.68;2.25;;;10.00;99.90;;;;;;8442182;28;20406;-72
2024/02/03 06:04:41;;;;;;;6.78;2.30;;;10.00;99.90;;;;;;8439296;28;20483;-72
2024/02/03 06:08:43;;;;;;;6.82;2.00;;;10.00;99.90;;;;;;8451292;28;20047;-73
2024/02/03 06:12:45;;;;;;;7.75;2.17;;;10.00;99.90;;;;;;8433312;27;20039;-72
2024/02/03 06:16:47;;;;;;;6.55;2.13;;;10.00;99.90;;;;;;8457813;27;20443;-72
2024/02/03 06:20:49;;;;;;;8.77;2.15;;;10.00;99.90;;;;;;8461637;27;20138;-72
2024/02/03 06:24:51;;;;;;;7.85;2.60;;;10.00;99.90;;;;;;8434640;28;20048;-72
2024/02/03 06:28:53;;;;;;;6.20;2.22;;;10.00;99.90;;;;;;8447271;27;20051;-72
2024/02/03 06:32:55;;;;;;;8.15;2.38;;;10.00;99.90;;;;;;8428097;27;20092;-72
2024/02/03 06:36:57;;;;;;;5.97;2.00;;;10.00;99.90;;;;;;8445292;27;20138;-72
2024/02/03 06:40:58;;;;;;;5.93;1.95;;;10.00;99.90;;;;;;8440407;27;20113;-72
2024/02/03 06:45:00;;;;;;;10.63;2.83;;;10.10;99.90;;;;;;8435003;28;20101;-72
2024/02/03 06:49:02;;;;;;;10.00;3.65;;;10.10;99.90;;;;;;8432625;28;20129;-72
2024/02/03 06:53:05;;;;;;;12.60;3.45;;;10.10;99.90;;;;;;8435998;28;20047;-72
2024/02/03 06:57:07;;;;;;;9.43;2.85;;;10.10;99.90;;;;;;8459493;27;20071;-72
2024/02/03 07:01:08;;;;;;;8.68;2.95;;;10.10;99.90;;;;;;8456699;28;20056;-72
2024/02/03 07:05:11;;;;;;;12.88;4.03;;;10.10;99.90;;;;;;8454042;27;20101;-72
2024/02/03 07:09:13;;;;;;;12.57;3.90;;;10.10;99.90;;;;;;8439950;28;20688;-72
2024/02/03 07:13:41;;;;;;;10.35;3.88;;;10.10;99.90;;;;;;8452338;27;20050;-72
2024/02/03 07:17:43;;;;;;;13.45;3.65;;;10.10;99.90;;;;;;8440977;27;20046;-72
2024/02/03 07:21:45;;;;;;;13.80;4.35;;;10.10;99.90;;;;;;8436742;28;20063;-72
2024/02/03 07:25:47;;;;;;;13.75;3.80;;;10.10;99.90;;;;;;8444952;27;20063;-72
2024/02/03 07:29:49;;;;;;;10.77;3.70;;;10.00;99.90;;;;;;8433675;28;20548;-73
2024/02/03 07:33:51;;;;;;;9.30;3.83;;;10.00;99.90;;;;;;8453217;27;20142;-72
2024/02/03 07:37:53;;;;;;;9.48;4.07;;;10.10;99.90;;;;;;8436725;27;20213;-73
2024/02/03 07:41:55;;;;;;;10.90;3.78;;;10.10;99.90;;;;;;8432157;27;20084;-72
2024/02/03 07:45:56;;;;;;;8.35;3.80;;;10.10;99.90;;;;;;8446999;27;20048;-72
2024/02/03 07:49:58;;;;;;;9.77;3.70;;;10.10;99.90;;;;;;8461726;27;20040;-72
2024/02/03 07:54:01;;;;;;;10.52;3.95;;;10.10;99.90;;;;;;8450679;28;20050;-72
2024/02/03 07:58:03;;;;;;;10.40;3.20;;;10.10;99.90;;;;;;8442688;27;20092;-72
2024/02/03 08:02:05;;;;;;;7.65;3.45;;;10.10;99.90;;;;;;8449541;28;20051;-72
2024/02/03 08:06:07;;;;;;;11.02;3.95;;;10.10;99.90;;;;;;8453676;28;20051;-72
2024/02/03 08:10:09;;;;;;;8.98;2.97;;;10.10;99.90;;;;;;8452251;28;20138;-72
2024/02/03 08:14:11;;;;;;;10.73;3.38;;;10.10;99.90;;;;;;8438620;28;20039;-72
2024/02/03 08:18:13;;;;;;;10.45;3.17;;;10.10;99.90;;;;;;8439614;28;20402;-72
2024/02/03 08:22:15;;;;;;;8.63;3.38;;;10.10;99.90;;;;;;8443143;28;20044;-72
2024/02/03 08:26:17;;;;;;;12.73;3.40;;;10.10;99.90;;;;;;8445067;28;20476;-72
2024/02/03 08:30:18;;;;;;;8.75;3.63;;;10.10;99.90;;;;;;8451807;28;20050;-72
2024/02/03 08:34:20;;;;;;;10.32;3.20;;;10.20;99.90;;;;;;8456451;28;20131;-72
2024/02/03 08:38:22;;;;;;;8.25;2.95;;;10.10;99.90;;;;;;8453055;28;20048;-72
2024/02/03 08:42:24;;;;;;;10.32;3.30;;;10.20;99.90;;;;;;8448064;28;20048;-72
2024/02/03 08:46:26;;;;;;;12.90;3.72;;;10.20;99.90;;;;;;8452299;28;20055;-72
2024/02/03 08:50:28;;;;;;;9.60;3.15;;;10.20;99.90;;;;;;8456622;28;20047;-72
2024/02/03 08:54:30;;;;;;;12.80;3.67;;;10.20;99.90;;;;;;8449618;28;20113;-72
2024/02/03 08:58:32;;;;;;;5.15;2.60;;;10.20;99.90;;;;;;8450479;28;20058;-72
2024/02/03 09:02:34;;;;;;;9.10;4.00;;;10.30;99.90;;;;;;8455198;28;20569;-72
2024/02/03 09:06:35;;;;;;;13.32;2.75;;;10.30;99.90;;;;;;8447848;28;20059;-72
2024/02/03 09:10:37;;;;;;;8.07;2.55;;;10.30;99.90;;;;;;8440176;28;20070;-72
2024/02/03 09:14:39;;;;;;;8.13;2.63;;;10.30;99.90;;;;;;8432150;28;20044;-72
2024/02/03 09:18:41;;;;;;;9.50;3.13;;;10.40;99.90;;;;;;8443390;28;20125;-72
2024/02/03 09:22:43;;;;;;;8.30;2.78;;;10.40;99.90;;;;;;8462340;28;20051;-72
2024/02/03 09:26:45;;;;;;;10.30;3.42;;;10.40;99.90;;;;;;8456740;28;20097;-72
2024/02/03 09:30:47;;;;;;;9.18;3.10;;;10.40;99.90;;;;;;8459966;28;20375;-72
2024/02/03 09:34:49;;;;;;;11.82;3.38;;;10.40;99.90;;;;;;8454000;27;20039;-72
2024/02/03 09:38:51;;;;;;;11.75;3.42;;;10.40;99.90;;;;;;8434884;27;20081;-72
2024/02/03 09:42:53;;;;;;;9.07;3.45;;;10.40;99.90;;;;;;8466166;27;20047;-72
2024/02/03 09:46:55;;;;;;;12.05;3.95;;;10.50;99.90;;;;;;8431643;28;20135;-72
2024/02/03 09:50:59;;;;;;;9.10;3.08;;;10.50;99.90;;;;;;8455738;28;20524;-72
2024/02/03 09:55:01;;;;;;;11.00;3.83;;;10.60;99.90;;;;;;8450836;28;20088;-72
2024/02/03 09:59:04;;;;;;;7.25;3.42;;;10.60;99.90;;;;;;8439364;28;20460;-72
2024/02/03 10:03:17;;;;;;;8.32;3.67;;;10.60;99.90;;;;;;8455577;28;20059;-72
2024/02/03 10:07:19;;;;;;;9.13;4.05;;;10.60;99.90;;;;;;8456772;27;20054;-71
2024/02/03 10:11:22;;;;;;;9.63;3.70;;;10.60;99.90;;;;;;8450199;28;20453;-72
2024/02/03 10:15:24;;;;;;;12.63;4.00;;;10.60;99.90;;;;;;8462104;28;20053;-72
2024/02/03 10:19:27;;;;;;;10.70;4.05;;;10.60;99.90;;;;;;8456624;28;20047;-72
2024/02/03 10:23:30;;;;;;;7.57;3.40;;;10.60;99.90;;;;;;8446001;28;20384;-72
2024/02/03 10:27:32;;;;;;;10.30;3.75;;;10.60;99.90;;;;;;8443154;27;20032;-72
2024/02/03 10:31:34;;;;;;;11.43;3.70;;;10.60;99.90;;;;;;8460767;28;20046;-72
2024/02/03 10:41:05;;;;;;;9.60;2.75;;;10.60;99.90;;;;;;8453042;28;20118;-72
2024/02/03 10:45:10;;;;;;;11.02;3.05;;;10.60;99.90;;;;;;8456227;28;20048;-72
2024/02/03 10:54:36;;;;;;;8.55;3.33;;;10.60;99.90;;;;;;8452602;27;20154;-72
2024/02/03 10:58:40;;;;;;;10.63;2.90;;;10.60;99.90;;;;;;8451027;28;20059;-72
2024/02/03 11:02:52;;;;;;;7.40;2.58;;;10.60;99.90;;;;;;8448222;28;20505;-72
2024/02/03 11:06:58;;;;;;;7.63;2.75;;;10.50;99.90;;;;;;8450495;28;20388;-72
2024/02/03 11:11:00;;;;;;;6.30;2.45;;;10.50;99.90;;;;;;8450636;27;20043;-72
2024/02/03 11:15:08;;;;;;;6.88;2.53;;;10.50;99.90;;;;;;8437818;28;20051;-72
2024/02/03 11:19:11;;;;;;;8.07;2.72;;;10.50;99.90;;;;;;8450798;28;20060;-72
2024/02/03 11:23:14;;;;;;;5.45;2.42;;;10.50;99.90;;;;;;8451634;28;20081;-73
2024/02/03 11:27:15;;;;;;;6.55;3.13;;;10.50;99.90;;;;;;8446282;28;20450;-72
2024/02/03 11:31:17;;;;;;;5.82;2.90;;;10.50;99.90;;;;;;8448123;27;20035;-72
2024/02/03 11:35:21;;;;;;;5.95;3.10;;;10.50;99.90;;;;;;8440083;28;20048;-72
2024/02/03 11:39:34;;;;;;;6.07;3.10;;;10.50;99.90;;;;;;8442158;28;20131;-73
2024/02/03 11:43:36;;;;;;;10.05;3.47;;;10.50;99.90;;;;;;8435303;28;20123;-72
2024/02/03 11:47:38;;;;;;;7.35;2.97;;;10.50;99.90;;;;;;8423282;28;20044;-72
2024/02/03 11:52:14;;;;;;;7.43;3.22;;;10.60;99.90;;;;;;8436025;28;20102;-72
2024/02/03 11:56:16;;;;;;;6.85;3.35;;;10.60;99.90;;;;;;8441791;27;20490;-72
2024/02/03 12:00:20;;;;;;;9.45;3.38;;;10.70;99.90;;;;;;8450655;27;20055;-72
2024/02/03 12:04:23;;;;;;;8.93;3.55;;;10.70;99.90;;;;;;8452451;27;20067;-72
2024/02/03 12:08:25;;;;;;;7.68;3.30;;;10.70;99.90;;;;;;8432689;27;20094;-72
2024/02/03 12:12:27;;;;;;;7.97;4.03;;;10.70;99.90;;;;;;8438266;27;20040;-72
2024/02/03 12:16:30;;;;;;;8.15;4.07;;;10.70;99.90;;;;;;8430095;28;20054;-72
2024/02/03 12:20:32;;;;;;;7.43;3.83;;;10.70;99.90;;;;;;8430170;28;20060;-72
2024/02/03 12:24:34;;;;;;;7.57;3.67;;;10.70;99.90;;;;;;8447216;28;20165;-72
2024/02/03 12:28:37;;;;;;;8.98;3.60;;;10.70;99.90;;;;;;8422643;28;20074;-72
2024/02/03 12:32:40;;;;;;;7.35;3.40;;;10.70;99.90;;;;;;8410562;28;20047;-72
2024/02/03 12:36:42;;;;;;;9.50;4.18;;;10.60;99.90;;;;;;8416652;28;20100;-72
2024/02/03 12:40:44;;;;;;;8.60;3.97;;;10.60;99.90;;;;;;8405748;28;20054;-72
2024/02/03 12:44:45;;;;;;;7.68;3.65;;;10.60;99.90;;;;;;8429634;28;20048;-72
2024/02/03 12:48:47;;;;;;;6.32;3.60;;;10.60;99.90;;;;;;8436991;28;20056;-73
2024/02/03 12:52:50;;;;;;;5.60;3.38;;;10.70;99.90;;;;;;8439449;28;20059;-73
2024/02/03 12:56:52;;;;;;;7.63;3.80;;;10.70;99.90;;;;;;8422214;28;20477;-72
2024/02/03 13:00:54;;;;;;;8.38;4.95;;;10.70;99.90;;;;;;8430646;28;20047;-72
2024/02/03 13:04:56;;;;;;;6.82;4.18;;;10.70;99.90;;;;;;8421419;28;20044;-73
2024/02/03 13:08:58;;;;;;;7.18;4.70;;;10.70;99.90;;;;;;8423556;28;20758;-72
2024/02/03 13:13:00;;;;;;;7.53;4.38;;;10.70;99.90;;;;;;8428032;28;20047;-73
2024/02/03 13:17:02;;;;;;;7.40;4.82;;;10.70;99.90;;;;;;8423749;28;20040;-73
2024/02/03 13:21:04;;;;;;;7.35;5.18;;;10.80;99.90;;;;;;8432687;28;20044;-72
2024/02/03 13:25:06;;;;;;;11.52;6.15;;;10.80;99.90;;;;;;8422481;28;20113;-73
2024/02/03 13:29:09;;;;;;;9.52;5.38;;;10.80;99.90;;;;;;8423492;28;20581;-73
2024/02/03 13:33:14;;;;;;;9.25;5.30;;;10.90;99.90;;;;;;8425845;28;20510;-72
2024/02/03 13:37:16;;;;;;;9.23;5.70;;;11.00;99.90;;;;;;8423629;27;20484;-72
2024/02/03 13:41:18;;;;;;;7.95;4.88;;;11.00;99.90;;;;;;8426776;28;20047;-72
2024/02/03 13:45:20;;;;;;;9.30;5.35;;;11.10;99.90;;;;;;8426296;28;20121;-72
2024/02/03 13:49:22;;;;;;;12.15;5.30;;;11.10;99.90;;;;;;8411071;28;20129;-72
2024/02/03 13:53:25;;;;;;;8.15;4.88;;;11.10;99.90;;;;;;8428078;28;20073;-72
2024/02/03 13:57:26;;;;;;;8.00;4.93;;;11.10;99.90;;;;;;8415486;28;20068;-73
2024/02/03 14:01:28;;;;;;;9.90;5.78;;;11.10;99.90;;;;;;8427729;28;20141;-72
2024/02/03 14:05:31;;;;;;;9.65;5.20;;;11.10;99.90;;;;;;8426134;28;20051;-71
2024/02/03 14:09:33;;;;;;;8.57;5.00;;;11.10;99.90;;;;;;8413275;28;20860;-73
2024/02/03 14:13:34;;;;;;;7.88;5.00;;;11.10;99.90;;;;;;8427777;28;20079;-72
2024/02/03 14:17:36;;;;;;;6.80;4.35;;;11.10;99.90;;;;;;8407620;28;20086;-72
2024/02/03 14:21:39;;;;;;;10.45;4.70;;;11.10;99.90;;;;;;8432044;28;20134;-72
2024/02/03 14:25:41;;;;;;;12.73;5.30;;;11.10;99.90;;;;;;8421063;28;20111;-72
2024/02/03 14:29:43;;;;;;;8.32;4.60;;;11.10;99.90;;;;;;8410992;27;20135;-72
2024/02/03 14:33:45;;;;;;;6.60;4.13;;;11.10;99.90;;;;;;8408541;27;20057;-72
2024/02/03 14:37:47;;;;;;;8.10;4.22;;;11.10;99.90;;;;;;8411131;27;20139;-72
2024/02/03 14:41:49;;;;;;;7.35;4.28;;;11.10;99.90;;;;;;8438678;27;20096;-72
2024/02/03 14:45:51;;;;;;;8.68;3.95;;;11.10;99.90;;;;;;8422002;27;21000;-72
2024/02/03 14:49:53;;;;;;;8.93;3.75;;;11.10;99.90;;;;;;8428388;28;20048;-72
2024/02/03 14:53:55;;;;;;;7.97;3.55;;;11.20;99.90;;;;;;8422833;28;20052;-72
2024/02/03 14:57:57;;;;;;;5.80;3.20;;;11.20;99.90;;;;;;8426236;28;20048;-72
2024/02/03 15:02:01;;;;;;;6.53;3.50;;;11.20;99.90;;;;;;8425608;28;20066;-72
2024/02/03 15:06:04;;;;;;;5.50;3.50;;;11.20;99.90;;;;;;8424741;27;20502;-72
2024/02/03 15:10:06;;;;;;;7.90;3.63;;;11.20;99.90;;;;;;8426123;28;20066;-72
2024/02/03 15:14:08;;;;;;;7.78;3.50;;;11.20;99.90;;;;;;8407932;28;20047;-72
2024/02/03 15:18:10;;;;;;;5.88;2.90;;;11.30;99.90;;;;;;8405609;28;20044;-72
2024/02/03 15:22:12;;;;;;;11.27;4.07;;;11.30;99.90;;;;;;8411115;28;20448;-72
2024/02/03 15:26:14;;;;;;;5.97;2.92;;;11.30;99.90;;;;;;8421773;28;20094;-72
2024/02/03 15:30:16;;;;;;;9.02;3.15;;;11.30;99.90;;;;;;8424117;28;20051;-72
2024/02/03 15:34:18;;;;;;;7.97;3.53;;;11.30;99.90;;;;;;8418814;28;20044;-72
2024/02/03 15:38:19;;;;;;;7.43;2.70;;;11.30;99.90;;;;;;8427510;28;20040;-72
2024/02/03 15:42:21;;;;;;;6.70;2.83;;;11.30;99.90;;;;;;8426826;28;20079;-73
2024/02/03 15:46:23;;;;;;;8.77;3.08;;;11.30;99.90;;;;;;8405051;28;20043;-73
2024/02/03 15:50:40;;;;;;;6.60;2.63;;;11.30;99.90;;;;;;8423558;28;20047;-72
2024/02/03 15:54:42;;;;;;;9.15;2.20;;;11.30;99.90;;;;;;8425317;28;20092;-72
2024/02/03 15:58:43;;;;;;;8.05;3.10;;;11.30;99.90;;;;;;8425903;28;20068;-72
2024/02/03 16:02:47;;;;;;;7.07;2.22;;;11.30;99.90;;;;;;8418763;28;20044;-72
2024/02/03 16:06:49;;;;;;;9.30;2.40;;;11.30;99.90;;;;;;8410903;28;20598;-72
2024/02/03 16:10:51;;;;;;;6.32;2.50;;;11.30;99.90;;;;;;8423236;28;20051;-72
2024/02/03 16:14:53;;;;;;;6.80;2.38;;;11.30;99.90;;;;;;8422661;28;20044;-72
2024/02/03 16:18:55;;;;;;;9.23;2.20;;;11.30;99.90;;;;;;8424162;28;20055;-72
2024/02/03 16:22:57;;;;;;;5.65;2.30;;;11.30;99.90;;;;;;8419515;28;20048;-72
2024/02/03 16:27:00;;;;;;;8.23;2.20;;;11.30;99.90;;;;;;8420399;28;20060;-72
2024/02/03 16:31:02;;;;;;;6.22;2.05;;;11.30;99.90;;;;;;8426556;27;20086;-73
2024/02/03 16:40:26;;;;;;;5.22;1.90;;;11.30;99.90;;;;;;8425899;28;20081;-72
2024/02/03 16:44:27;;;;;;;9.25;1.90;;;11.20;99.90;;;;;;8413483;28;20143;-72
2024/02/03 16:48:29;;;;;;;10.30;2.25;;;11.10;99.90;;;;;;8420747;28;20056;-72
2024/02/03 16:52:31;;;;;;;7.45;2.03;;;11.00;99.90;;;;;;8416674;28;20048;-72
2024/02/03 16:56:33;;;;;;;9.68;2.00;;;10.90;99.90;;;;;;8421205;28;20058;-72
2024/02/03 17:00:37;;;;;;;6.00;1.73;;;10.90;99.90;;;;;;8426763;28;20070;-72
2024/02/03 17:04:44;;;;;;;10.15;2.30;;;10.80;99.90;;;;;;8424431;28;20055;-72
2024/02/03 17:08:48;;;;;;;;;;;10.70;99.90;;;;;;8425336;28;20493;-72
2024/02/03 17:12:50;;;;;;;8.85;1.80;;;10.70;99.90;;;;;;8419962;28;20363;-73
2024/02/03 17:16:52;;;;;;;8.20;2.03;;;10.60;99.90;;;;;;8422163;28;20377;-72
2024/02/03 17:20:54;;;;;;;6.35;1.90;;;10.50;99.90;;;;;;8423082;28;20446;-72
2024/02/03 17:24:56;;;;;;;7.30;2.40;;;10.40;99.90;;;;;;8406133;28;20051;-72
2024/02/03 17:28:58;;;;;;;6.53;2.13;;;10.30;99.90;;;;;;8407990;28;20554;-72
2024/02/03 17:32:59;;;;;;;8.20;2.70;;;10.20;99.90;;;;;;8427969;27;20047;-73
2024/02/03 17:37:01;;;;;;;12.55;2.60;;;10.10;99.90;;;;;;8415879;28;20092;-72
2024/02/03 17:41:03;;;;;;;6.82;2.10;;;10.10;99.90;;;;;;8425846;27;20055;-72
2024/02/03 17:45:06;;;;;;;7.47;2.42;;;10.00;99.90;;;;;;8407082;27;20072;-73
2024/02/03 17:49:09;;;;;;;9.68;2.67;;;9.90;99.90;;;;;;8422202;28;20082;-73
2024/02/03 17:53:11;;;;;;;6.97;2.45;;;9.80;99.90;;;;;;8426636;27;20093;-72
2024/02/03 17:57:13;;;;;;;5.60;2.20;;;9.70;99.90;;;;;;8428509;28;20475;-72
2024/02/03 18:12:00;;;;;;;7.80;3.47;;;9.60;99.90;;;;;;8422659;28;20066;-73
2024/02/03 18:16:02;;;;;;;10.07;2.92;;;9.60;99.90;;;;;;8427735;28;20487;-72
2024/02/03 18:20:04;;;;;;;12.07;3.00;;;9.50;99.90;;;;;;8428311;28;20099;-73
2024/02/03 18:24:06;;;;;;;10.73;3.50;;;9.50;99.90;;;;;;8428783;28;20051;-72
2024/02/03 18:28:08;;;;;;;13.93;4.00;;;9.50;99.90;;;;;;8429452;27;20055;-73
2024/02/03 18:32:10;;;;;;;12.82;4.50;;;9.40;99.90;;;;;;8423364;27;20051;-73
2024/02/03 18:36:12;;;;;;;8.23;3.40;;;9.40;99.90;;;;;;8406439;28;20040;-72
2024/02/03 18:40:14;;;;;;;8.73;3.05;;;9.40;99.90;;;;;;8426114;28;20043;-72
2024/02/03 18:44:15;;;;;;;16.48;5.50;;;9.40;99.90;;;;;;8444747;28;20135;-73
2024/02/03 18:48:17;;;;;;;17.35;4.22;;;9.30;99.90;;;;;;8439369;27;20081;-73
2024/02/03 18:52:19;;;;;;;12.43;3.40;;;9.30;99.90;;;;;;8422654;28;20477;-72
2024/02/03 18:56:22;;;;;;;10.90;3.80;;;9.30;99.90;;;;;;8426747;27;20064;-72
2024/02/03 19:00:24;;;;;;;9.23;3.60;;;9.30;99.90;;;;;;8426966;27;20052;-72
2024/02/03 19:04:25;;;;;;;13.55;3.38;;;9.30;99.90;;;;;;8415598;28;20052;-73
2024/02/03 19:08:28;;;;;;;9.32;3.40;;;9.30;99.90;;;;;;8429648;27;20052;-73
2024/02/03 19:12:29;;;;;;;15.73;4.28;;;9.30;99.90;;;;;;8412210;27;20044;-73
2024/02/03 19:16:31;;;;;;;13.73;4.25;;;9.30;99.90;;;;;;8423472;27;20078;-72
2024/02/03 19:20:33;;;;;;;10.10;3.30;;;9.40;99.90;;;;;;8426100;28;20404;-72
2024/02/03 19:24:35;;;;;;;12.90;3.83;;;9.40;99.90;;;;;;8443057;28;20044;-72
2024/02/03 19:28:37;;;;;;;16.83;5.07;;;9.50;99.90;;;;;;8424298;27;20112;-73
2024/02/03 19:32:59;;;;;;;9.45;3.70;;;9.50;99.90;;;;;;8414440;28;20354;-73
2024/02/03 19:37:01;;;;;;;10.45;4.00;;;9.50;99.90;;;;;;8423143;27;20044;-72
2024/02/03 19:41:03;;;;;;;15.93;4.47;;;9.60;99.90;;;;;;8428798;28;20052;-72
2024/02/03 19:45:06;;;;;;;14.07;4.53;;;9.60;99.90;;;;;;8429367;27;20052;-72
2024/02/03 19:49:08;;;;;;;12.02;4.70;;;9.60;99.90;;;;;;8430024;27;20499;-72
2024/02/03 19:53:10;;;;;;;19.85;4.65;;;9.60;99.90;;;;;;8431154;27;20050;-73
2024/02/03 19:57:11;;;;;;;17.55;4.80;;;9.70;99.90;;;;;;8430083;27;20067;-72
2024/02/03 20:01:14;;;;;;;16.90;5.55;;;9.70;99.90;;;;;;8423204;27;20105;-72
2024/02/03 20:05:16;;;;;;;13.05;4.53;;;9.70;99.90;;;;;;8425856;27;20051;-72
2024/02/03 20:09:19;;;;;;;10.27;5.30;;;9.80;99.90;;;;;;8421005;27;20449;-72
2024/02/03 20:13:22;;;;;;;14.07;4.68;;;9.80;99.90;;;;;;8420963;27;20044;-72
2024/02/03 20:17:24;;;;;;;15.38;5.15;;;9.80;99.90;;;;;;8406948;28;20036;-73
2024/02/03 20:21:26;;;;;;;13.43;4.70;;;9.80;99.90;;;;;;8406219;28;20063;-73
2024/02/03 20:30:50;;;;;;;15.73;5.10;;;9.80;99.90;;;;;;8426001;28;20027;-73
2024/02/03 20:34:52;;;;;;;12.50;4.50;;;9.90;99.90;;;;;;8424402;28;20114;-73
2024/02/03 20:39:00;;;;;;;13.52;4.40;;;9.90;99.90;;;;;;8409076;28;20043;-73
2024/02/03 20:43:02;;;;;;;;;;;9.90;99.90;;;;;;8421280;28;20047;-72
2024/02/03 20:47:04;;;;;;;15.77;5.80;;;9.90;99.90;;;;;;8424047;28;20103;-72
2024/02/03 20:51:07;;;;;;;16.67;4.78;;;9.90;99.90;;;;;;8420700;28;20056;-72
2024/02/03 20:55:34;;;;;;;12.93;4.90;;;9.90;99.90;;;;;;8408479;28;20072;-73
2024/02/03 20:59:36;;;;;;;14.75;5.63;;;9.90;99.90;;;;;;8356924;28;20041;-72
2024/02/03 21:03:39;;;;;;;16.23;6.00;;;9.90;99.90;;;;;;8356394;28;20496;-72
2024/02/03 21:07:41;;;;;;;15.55;5.32;;;10.00;99.90;;;;;;8362472;28;20045;-73
2024/02/03 21:11:46;;;;;;;16.88;5.60;;;10.00;99.90;;;;;;8362608;28;20048;-73
2024/02/03 21:15:48;;;;;;;16.30;6.78;;;10.00;99.90;;;;;;8372729;28;20098;-72
2024/02/03 21:19:52;;;;;;;12.88;5.82;;;10.00;99.90;;;;;;8363297;28;20055;-72
2024/02/03 21:23:54;;;;;;;18.90;6.72;;;10.10;99.90;;;;;;8362535;28;20504;-73
2024/02/03 21:27:56;;;;;;;15.30;6.28;;;10.10;99.90;;;;;;8357923;28;20053;-72
2024/02/03 21:31:58;;;;;;;17.13;7.03;;;10.10;99.90;;;;;;8359912;28;20056;-72
2024/02/03 21:36:00;;;;;;;16.23;6.50;;;10.10;99.90;;;;;;8364928;28;20053;-72
2024/02/03 21:40:04;;;;;;;18.17;6.80;;;10.10;99.90;;;;;;8360926;28;20055;-73
2024/02/03 21:44:06;;;;;;;12.85;6.07;;;10.20;99.90;;;;;;8372118;28;20053;-73
2024/02/03 21:48:08;;;;;;;11.40;5.85;;;10.20;99.90;;;;;;8359493;28;20095;-73